CST,Max TemperatureF,Mean TemperatureF,Min TemperatureF,Max Dew PointF,MeanDew PointF,Min DewpointF,Max Humidity, Mean Humidity, Min Humidity, Max Sea Level PressureIn, Mean Sea Level PressureIn, Min Sea Level PressureIn, Max VisibilityMiles, Mean VisibilityMiles, Min VisibilityMiles, Max Wind SpeedMPH, Mean Wind SpeedMPH, Max Gust SpeedMPH,PrecipitationIn, CloudCover, Events, WindDirDegrees
2012-11-1,59,44,28,36,27,18,70,56,38,29.95,29.90,29.83,10,10,10,16,7,23,0.00,3,,294
2012-11-2,48,38,28,30,27,23,86,63,43,30.16,30.07,29.96,10,10,10,10,6,,0.00,0,,25
2012-11-3,46,40,33,34,30,27,81,69,53,30.23,30.18,30.13,10,10,10,12,8,,0.00,7,,61
2012-11-4,50,39,28,34,29,25,93,72,50,30.26,30.22,30.18,10,10,7,7,1,,0.00,5,,55
2012-11-5,48,38,28,34,27,23,93,74,50,30.19,30.16,30.11,10,8,1,14,6,16,0.00,2,,96
2012-11-6,42,34,26,39,33,21,93,86,75,30.11,29.95,29.86,10,5,2,7,3,,0.13,7,,176
2012-11-7,44,38,33,39,36,32,93,84,70,30.17,30.06,29.89,10,6,0,9,6,,0.00,8,,330
2012-11-8,51,42,33,37,35,30,93,75,58,30.20,30.13,30.05,10,9,3,7,3,,0.00,4,,169
2012-11-9,55,44,33,46,40,30,93,80,63,30.07,30.00,29.94,10,7,3,13,6,,0.00,4,,109
2012-11-10,69,60,51,55,51,46,88,73,59,29.95,29.87,29.80,10,10,7,14,8,30,0.01,3,Thunderstorm,152
2012-11-11,66,50,33,55,46,27,100,76,63,30.01,29.83,29.66,10,10,2,24,11,32,0.47,6,,214
2012-11-12,35,30,24,25,20,16,75,64,56,30.36,30.18,30.01,10,10,10,25,19,31,0.29,5,,274
2012-11-13,42,32,21,25,21,18,86,68,42,30.50,30.45,30.36,10,10,10,8,5,,0.00,0,,234
2012-11-14,48,39,30,30,27,25,80,67,46,30.47,30.42,30.35,10,10,10,10,5,,0.00,2,,154
2012-11-15,53,40,26,32,28,21,93,68,41,30.37,30.34,30.30,10,10,10,7,3,,0.00,0,,177
2012-11-16,55,40,26,36,30,21,93,74,47,30.46,30.42,30.36,10,9,4,7,1,,0.00,0,,106
2012-11-17,55,40,26,36,29,23,93,73,41,30.52,30.46,30.42,10,8,4,8,4,,0.00,0,,122
2012-11-18,55,40,26,36,32,21,93,70,44,30.42,30.35,30.29,10,8,2,9,5,,0.00,0,,126
2012-11-19,57,48,39,43,39,34,81,69,54,30.28,30.18,30.09,10,10,8,9,5,,0.00,4,,162
2012-11-20,60,46,33,46,42,30,100,77,55,30.19,30.12,30.08,10,7,0,9,2,,0.00,4,,326
2012-11-21,59,48,37,48,41,36,93,85,59,30.23,30.15,30.06,10,4,0,8,3,,0.00,4,,204
2012-11-22,64,52,39,50,43,30,87,74,52,30.06,29.90,29.77,10,8,3,30,8,39,0.04,3,,215
2012-11-23,39,32,24,30,19,14,75,62,51,30.27,30.14,29.97,10,10,10,29,20,38,0.00,6,,297
2012-11-24,35,26,17,19,17,12,86,64,48,30.28,30.16,29.94,10,10,10,12,7,17,0.00,4,,260
2012-11-25,44,34,24,25,23,19,80,62,46,30.10,29.93,29.84,10,10,10,15,5,,0.00,2,,293
2012-11-26,32,28,24,23,19,18,75,70,64,30.22,30.16,30.10,10,10,10,8,5,,0.00,2,,357
2012-11-27,,,,,,,,,,,,,,,,,,,,,,
2012-11-28,,,,,,,,,,,,,,,,,,,,,,
2012-11-29,,,,,,,,,,,,,,,,,,,,,,
2012-11-30,53,42,30,36,33,28,93,70,51,30.13,30.10,30.05,10,8,2,13,7,,0.00,0,,64